Time;durP1;ratioP1;P1;durP2;ratioP2;P2;SDS_P1;SDS_P2;PMS_P1;PMS_P2;Temp;Humidity;BMP_temperature;BMP_pressure;BME280_temperature;BME280_humidity;BME280_pressure;Samples;Min_cycle;Max_cycle;Signal;HPM_P1;HPM_P2
2022/07/15 00:02:23;;;;;;;0.25;0.13;;;20.20;81.50;;;;;;4945067;28;20086;-65
2022/07/15 00:04:49;;;;;;;0.15;0.15;;;20.20;81.60;;;;;;4955143;28;20077;-65
2022/07/15 00:07:16;;;;;;;0.15;0.15;;;20.20;81.50;;;;;;4955019;28;20031;-65
2022/07/15 00:12:26;;;;;;;0.75;0.63;;;20.10;81.50;;;;;;4957688;28;20059;-65
2022/07/15 00:14:52;;;;;;;3.65;0.80;;;20.00;81.40;;;;;;4972296;28;20085;-65
2022/07/15 00:17:19;;;;;;;0.00;0.00;;;19.80;81.80;;;;;;4972647;28;20035;-65
2022/07/15 00:19:45;;;;;;;7.82;1.75;;;19.80;81.90;;;;;;4972645;28;20360;-65
2022/07/15 00:22:11;;;;;;;0.10;0.10;;;19.70;82.10;;;;;;4955086;28;20027;-65
2022/07/15 00:24:38;;;;;;;0.00;0.00;;;19.60;82.30;;;;;;4972544;28;20050;-65
2022/07/15 00:27:04;;;;;;;0.00;0.00;;;19.60;82.60;;;;;;4955149;28;20062;-65
2022/07/15 00:29:31;;;;;;;0.00;0.00;;;19.60;83.80;;;;;;4972099;28;20030;-65
2022/07/15 00:31:57;;;;;;;0.10;0.10;;;19.60;83.20;;;;;;4954953;28;20026;-64
2022/07/15 00:34:23;;;;;;;0.40;0.30;;;19.60;83.10;;;;;;4972100;28;20376;-65
2022/07/15 00:36:49;;;;;;;0.00;0.00;;;19.50;82.80;;;;;;4972271;28;20031;-65
2022/07/15 00:39:16;;;;;;;0.03;0.03;;;19.50;83.00;;;;;;4971923;28;20042;-66
2022/07/15 00:41:43;;;;;;;0.13;0.13;;;19.40;83.60;;;;;;4954581;28;20035;-65
2022/07/15 00:44:09;;;;;;;0.00;0.00;;;19.40;83.30;;;;;;4949024;28;20042;-66
2022/07/15 00:46:36;;;;;;;0.05;0.05;;;19.30;83.50;;;;;;4951959;29;20038;-65
2022/07/15 00:49:06;;;;;;;0.00;0.00;;;19.30;83.70;;;;;;4951518;29;20023;-65
2022/07/15 00:51:57;;;;;;;0.00;0.00;;;19.40;84.70;;;;;;4952740;29;20035;-66
2022/07/15 00:54:26;;;;;;;0.00;0.00;;;19.30;84.20;;;;;;4952568;28;20039;-65
2022/07/15 00:56:55;;;;;;;0.00;0.00;;;19.30;84.80;;;;;;4952880;29;20035;-65
2022/07/15 00:59:24;;;;;;;0.00;0.00;;;19.20;85.50;;;;;;4952678;29;20047;-65
2022/07/15 01:01:52;;;;;;;0.80;0.35;;;19.20;86.10;;;;;;4957317;28;20044;-65
2022/07/15 01:04:21;;;;;;;0.20;0.20;;;19.20;86.30;;;;;;4949500;28;20557;-66
2022/07/15 01:06:47;;;;;;;0.20;0.20;;;19.20;86.40;;;;;;4955859;28;20098;-65
2022/07/15 01:09:13;;;;;;;0.55;0.45;;;19.20;85.80;;;;;;4965299;28;20502;-65
2022/07/15 01:11:38;;;;;;;0.03;0.03;;;19.10;85.70;;;;;;4950519;28;20038;-65
2022/07/15 01:14:04;;;;;;;0.22;0.20;;;19.10;86.00;;;;;;4975335;28;20479;-65
2022/07/15 01:16:31;;;;;;;2.08;0.52;;;19.00;85.90;;;;;;4959264;28;20039;-65
2022/07/15 01:18:57;;;;;;;0.13;0.13;;;19.00;86.40;;;;;;4970857;28;20112;-65
2022/07/15 01:21:23;;;;;;;0.15;0.15;;;19.00;86.80;;;;;;4971055;28;20039;-65
2022/07/15 01:23:49;;;;;;;0.10;0.10;;;18.90;86.30;;;;;;4962033;28;20031;-65
2022/07/15 01:26:15;;;;;;;0.20;0.20;;;18.70;86.90;;;;;;4975175;28;20472;-66
2022/07/15 01:28:42;;;;;;;0.20;0.13;;;18.80;87.10;;;;;;4957984;28;20030;-65
2022/07/15 01:31:08;;;;;;;0.10;0.10;;;18.70;87.70;;;;;;4957973;28;20443;-65
2022/07/15 01:33:36;;;;;;;1.35;0.52;;;18.60;87.60;;;;;;4954351;28;20078;-65
2022/07/15 01:36:02;;;;;;;0.65;0.43;;;18.60;88.40;;;;;;4938802;29;20625;-65
2022/07/15 01:38:29;;;;;;;0.10;0.10;;;18.50;87.60;;;;;;4954475;29;20035;-65
2022/07/15 01:40:55;;;;;;;0.30;0.17;;;18.50;87.80;;;;;;4962269;28;20042;-66
2022/07/15 01:43:22;;;;;;;0.00;0.00;;;18.40;88.10;;;;;;4974802;28;20054;-66
2022/07/15 01:45:48;;;;;;;0.88;0.52;;;18.50;88.60;;;;;;4966411;28;20518;-66
2022/07/15 01:51:01;;;;;;;0.75;0.28;;;18.70;88.10;;;;;;4941061;29;20118;-66
2022/07/15 01:53:29;;;;;;;0.20;0.20;;;18.70;88.00;;;;;;4938386;28;20027;-66
2022/07/15 01:55:55;;;;;;;1.20;0.45;;;18.80;88.70;;;;;;4938368;29;20046;-66
2022/07/15 01:58:21;;;;;;;0.80;0.47;;;19.00;88.80;;;;;;4938395;29;20400;-66
2022/07/15 02:00:49;;;;;;;0.00;0.00;;;19.10;88.20;;;;;;4955366;29;20042;-66
2022/07/15 02:03:15;;;;;;;0.50;0.50;;;19.30;88.50;;;;;;4953994;28;20117;-66
2022/07/15 02:05:41;;;;;;;0.00;0.00;;;19.30;88.70;;;;;;4974839;28;20030;-66
2022/07/15 02:08:07;;;;;;;2.97;1.02;;;19.20;88.80;;;;;;4974306;28;20034;-66
2022/07/15 02:10:41;;;;;;;0.40;0.40;;;19.10;88.70;;;;;;4957468;28;20058;-66
2022/07/15 02:13:12;;;;;;;0.38;0.20;;;18.90;88.70;;;;;;4974613;28;20474;-66
2022/07/15 02:15:39;;;;;;;1.17;0.75;;;18.80;89.10;;;;;;4957907;28;20035;-66
2022/07/15 02:18:06;;;;;;;0.00;0.00;;;18.80;89.40;;;;;;4956464;28;20054;-66
2022/07/15 02:20:33;;;;;;;0.00;0.00;;;18.60;90.00;;;;;;4974150;28;20038;-66
2022/07/15 02:23:01;;;;;;;3.00;0.90;;;18.50;90.50;;;;;;4974393;28;20034;-66
2022/07/15 02:25:30;;;;;;;0.30;0.30;;;18.20;90.60;;;;;;4957076;28;20035;-66
2022/07/15 02:27:58;;;;;;;1.17;0.40;;;18.30;91.00;;;;;;4974079;28;20037;-66
2022/07/15 02:30:34;;;;;;;1.13;1.08;;;18.00;91.30;;;;;;4974166;28;20134;-66
2022/07/15 02:33:01;;;;;;;0.10;0.10;;;18.00;91.80;;;;;;4953390;29;20027;-66
2022/07/15 02:35:28;;;;;;;1.25;0.85;;;18.00;92.00;;;;;;4954877;28;20031;-66
2022/07/15 02:37:54;;;;;;;1.05;0.47;;;17.90;92.00;;;;;;4954978;28;20035;-66
2022/07/15 02:40:20;;;;;;;6.78;0.77;;;17.80;92.40;;;;;;4954356;29;20053;-66
2022/07/15 02:42:56;;;;;;;0.25;0.17;;;17.70;92.40;;;;;;4954707;29;20039;-66
2022/07/15 02:45:24;;;;;;;0.00;0.00;;;17.90;92.50;;;;;;4937701;29;20043;-66
2022/07/15 02:47:51;;;;;;;0.13;0.13;;;17.80;92.40;;;;;;4944138;29;20036;-66
2022/07/15 02:50:18;;;;;;;0.10;0.10;;;17.70;92.40;;;;;;4935309;29;20492;-66
2022/07/15 02:52:44;;;;;;;0.00;0.00;;;17.60;92.50;;;;;;4933753;29;20028;-66
2022/07/15 02:55:11;;;;;;;1.35;1.20;;;17.60;93.20;;;;;;4935260;29;20403;-66
2022/07/15 02:57:38;;;;;;;0.88;0.15;;;17.70;92.70;;;;;;4934269;29;20031;-66
2022/07/15 03:00:08;;;;;;;0.22;0.22;;;17.70;92.70;;;;;;4935109;29;20024;-66
2022/07/15 03:02:34;;;;;;;0.00;0.00;;;17.60;92.80;;;;;;4954642;28;20089;-66
2022/07/15 03:05:00;;;;;;;0.00;0.00;;;17.60;92.70;;;;;;4956313;28;20491;-66
2022/07/15 03:07:28;;;;;;;0.00;0.00;;;17.60;93.00;;;;;;4973484;28;20030;-66
2022/07/15 03:09:54;;;;;;;0.55;0.52;;;17.50;92.80;;;;;;4973542;28;20106;-66
2022/07/15 03:12:21;;;;;;;0.65;0.55;;;17.40;92.90;;;;;;4956104;28;20023;-66
2022/07/15 03:14:46;;;;;;;0.00;0.00;;;17.40;93.10;;;;;;4939885;28;20394;-66
2022/07/15 03:17:12;;;;;;;0.10;0.10;;;17.40;93.30;;;;;;4973526;28;20031;-66
2022/07/15 03:19:39;;;;;;;0.77;0.55;;;17.40;93.20;;;;;;4973363;28;20390;-66
2022/07/15 03:22:06;;;;;;;0.20;0.20;;;17.40;93.20;;;;;;4939935;28;20041;-66
2022/07/15 03:24:31;;;;;;;1.02;0.52;;;17.40;93.20;;;;;;4939648;28;20169;-66
2022/07/15 03:26:58;;;;;;;0.20;0.20;;;17.40;93.40;;;;;;4973140;28;20126;-66
2022/07/15 03:29:24;;;;;;;0.10;0.10;;;17.40;93.50;;;;;;4955994;28;20033;-66
2022/07/15 03:31:50;;;;;;;0.00;0.00;;;17.20;93.60;;;;;;4950905;29;20085;-66
2022/07/15 03:34:16;;;;;;;0.05;0.05;;;17.30;94.40;;;;;;4953488;28;20031;-66
2022/07/15 03:36:42;;;;;;;0.75;0.47;;;17.20;94.60;;;;;;4953673;29;20031;-66
2022/07/15 03:39:08;;;;;;;0.00;0.00;;;17.10;94.70;;;;;;4953769;29;20039;-66
2022/07/15 03:41:35;;;;;;;0.00;0.00;;;17.20;95.00;;;;;;4936579;29;20037;-66
2022/07/15 03:44:01;;;;;;;1.13;1.02;;;17.20;95.10;;;;;;4936280;29;20089;-65
2022/07/15 03:46:27;;;;;;;0.30;0.30;;;17.10;94.80;;;;;;4953267;29;20023;-66
2022/07/15 03:48:53;;;;;;;0.70;0.45;;;17.10;94.80;;;;;;4936470;29;20035;-66
2022/07/15 03:51:19;;;;;;;0.08;0.08;;;16.90;95.00;;;;;;4932693;29;20035;-66
2022/07/15 03:53:45;;;;;;;0.77;0.50;;;17.00;95.10;;;;;;4917062;29;20075;-66
2022/07/15 03:56:11;;;;;;;0.10;0.10;;;17.10;95.10;;;;;;4932838;29;20119;-66
2022/07/15 03:58:38;;;;;;;0.20;0.20;;;17.20;94.60;;;;;;4934329;29;20034;-66
2022/07/15 04:01:04;;;;;;;0.28;0.25;;;17.20;94.60;;;;;;4934175;29;20070;-66
2022/07/15 04:03:30;;;;;;;0.50;0.50;;;17.10;94.80;;;;;;4952496;28;20034;-66
2022/07/15 04:05:56;;;;;;;0.05;0.05;;;16.90;95.10;;;;;;4955341;28;20027;-66
2022/07/15 04:08:21;;;;;;;0.10;0.10;;;17.10;95.00;;;;;;4955294;28;20018;-66
2022/07/15 04:10:47;;;;;;;0.08;0.08;;;17.30;94.60;;;;;;4972344;28;20030;-65
2022/07/15 04:13:18;;;;;;;0.35;0.35;;;17.20;94.60;;;;;;4955079;28;20027;-66
2022/07/15 04:15:46;;;;;;;0.15;0.15;;;17.00;95.10;;;;;;4955809;28;20747;-66
2022/07/15 04:18:12;;;;;;;0.03;0.03;;;16.80;95.20;;;;;;4972439;28;20046;-66
2022/07/15 04:20:37;;;;;;;0.10;0.10;;;16.90;95.60;;;;;;4955092;28;20387;-66
2022/07/15 04:23:03;;;;;;;0.13;0.13;;;16.80;95.40;;;;;;4972285;28;20027;-67
2022/07/15 04:25:29;;;;;;;0.00;0.00;;;16.60;96.00;;;;;;4954799;28;20042;-66
2022/07/15 04:27:55;;;;;;;0.30;0.30;;;16.70;95.80;;;;;;4972161;28;20030;-66
2022/07/15 04:30:21;;;;;;;0.00;0.00;;;16.80;96.10;;;;;;4972366;28;20027;-65
2022/07/15 04:32:46;;;;;;;0.10;0.10;;;16.80;96.20;;;;;;4954459;28;20033;-66
2022/07/15 04:35:12;;;;;;;0.00;0.00;;;16.90;96.10;;;;;;4954829;28;20049;-66
2022/07/15 04:37:38;;;;;;;0.22;0.20;;;16.80;96.40;;;;;;4972396;28;20027;-66
2022/07/15 04:40:09;;;;;;;0.00;0.00;;;16.90;96.40;;;;;;4972255;28;20035;-66
2022/07/15 04:42:36;;;;;;;0.10;0.10;;;17.00;96.10;;;;;;4957295;28;20097;-66
2022/07/15 04:45:02;;;;;;;0.10;0.10;;;17.00;96.00;;;;;;4952901;28;20067;-66
2022/07/15 04:47:28;;;;;;;0.60;0.60;;;16.90;96.10;;;;;;4953355;29;20434;-66
2022/07/15 04:52:44;;;;;;;0.38;0.20;;;17.00;96.20;;;;;;4956434;29;20052;-65
2022/07/15 04:55:10;;;;;;;0.20;0.20;;;17.10;96.20;;;;;;4955594;28;20043;-65
2022/07/15 04:57:36;;;;;;;0.00;0.00;;;17.30;96.10;;;;;;4955240;29;20074;-65
2022/07/15 05:00:04;;;;;;;0.10;0.10;;;17.30;96.00;;;;;;4955129;28;20035;-66
2022/07/15 05:02:30;;;;;;;0.30;0.30;;;17.40;95.90;;;;;;4948515;29;20027;-65
2022/07/15 05:04:56;;;;;;;0.30;0.20;;;17.40;96.00;;;;;;4956381;28;20375;-65
2022/07/15 05:07:21;;;;;;;0.10;0.10;;;17.30;96.20;;;;;;4956446;29;20034;-65
2022/07/15 05:09:47;;;;;;;0.03;0.03;;;17.30;96.30;;;;;;4956154;28;20519;-65
2022/07/15 05:12:13;;;;;;;0.10;0.10;;;17.50;96.30;;;;;;4938750;29;20047;-66
2022/07/15 05:14:40;;;;;;;0.93;0.93;;;17.60;96.30;;;;;;4959281;28;20027;-66
2022/07/15 05:17:08;;;;;;;0.00;0.00;;;17.60;95.90;;;;;;4975171;28;20475;-66
2022/07/15 05:19:34;;;;;;;0.03;0.03;;;17.70;96.10;;;;;;4951469;29;20447;-64
2022/07/15 05:22:00;;;;;;;0.00;0.00;;;17.80;95.90;;;;;;4955570;29;20456;-64
2022/07/15 05:24:26;;;;;;;0.00;0.00;;;17.80;95.70;;;;;;4922291;29;20114;-65
2022/07/15 05:26:52;;;;;;;2.85;0.65;;;17.80;95.80;;;;;;4944925;29;20036;-65
2022/07/15 05:29:21;;;;;;;3.65;3.35;;;17.70;95.90;;;;;;4955260;28;20403;-64
2022/07/15 05:31:48;;;;;;;0.08;0.08;;;17.70;96.00;;;;;;4941790;28;20027;-66
2022/07/15 05:34:14;;;;;;;0.05;0.05;;;17.70;96.00;;;;;;4954956;28;20023;-65
2022/07/15 05:36:40;;;;;;;0.00;0.00;;;17.80;95.60;;;;;;4938626;29;20036;-64
2022/07/15 05:39:06;;;;;;;0.28;0.28;;;18.20;94.90;;;;;;4918862;29;20032;-65
2022/07/15 05:41:32;;;;;;;0.20;0.20;;;18.50;94.00;;;;;;4919104;29;20027;-65
2022/07/15 05:43:59;;;;;;;0.00;0.00;;;18.70;93.20;;;;;;4919314;29;20054;-65
2022/07/15 05:46:24;;;;;;;0.22;0.20;;;18.90;93.00;;;;;;4936053;29;20036;-66
2022/07/15 05:48:50;;;;;;;0.00;0.00;;;18.80;92.20;;;;;;4936034;29;20499;-65
2022/07/15 05:51:16;;;;;;;0.10;0.10;;;18.90;92.20;;;;;;4936060;29;20106;-64
2022/07/15 05:53:42;;;;;;;0.20;0.20;;;19.00;92.00;;;;;;4953965;28;20032;-64
2022/07/15 05:56:08;;;;;;;0.17;0.17;;;19.10;92.10;;;;;;4937947;29;20395;-65
2022/07/15 05:58:35;;;;;;;0.00;0.00;;;19.10;92.00;;;;;;4955184;29;20027;-66
2022/07/15 06:01:01;;;;;;;0.00;0.00;;;19.20;91.90;;;;;;4955257;29;20035;-65
2022/07/15 06:03:26;;;;;;;0.20;0.20;;;19.30;91.80;;;;;;4937607;28;20023;-65
2022/07/15 06:05:52;;;;;;;0.28;0.22;;;19.40;91.50;;;;;;4955110;29;20117;-65
2022/07/15 06:08:18;;;;;;;1.35;1.00;;;19.50;91.10;;;;;;4955112;28;20031;-65
2022/07/15 06:10:44;;;;;;;0.28;0.22;;;19.60;90.60;;;;;;4954957;29;20637;-65
2022/07/15 06:13:10;;;;;;;0.00;0.00;;;19.80;90.60;;;;;;4955178;29;20113;-65
2022/07/15 06:15:36;;;;;;;2.70;1.17;;;19.90;90.20;;;;;;4938167;29;20028;-69
2022/07/15 06:18:02;;;;;;;0.65;0.45;;;19.70;90.20;;;;;;4919385;29;20518;-68
2022/07/15 06:20:29;;;;;;;1.15;0.90;;;19.60;90.30;;;;;;4954294;29;20031;-68
2022/07/15 06:22:55;;;;;;;0.00;0.00;;;19.50;90.60;;;;;;4936353;29;20043;-69
2022/07/15 06:25:21;;;;;;;0.05;0.05;;;19.30;90.80;;;;;;4934182;29;20036;-69
2022/07/15 06:27:46;;;;;;;0.13;0.10;;;19.20;90.50;;;;;;4935963;29;20108;-68
2022/07/15 06:30:13;;;;;;;0.25;0.25;;;19.20;90.30;;;;;;4936012;29;20512;-68
2022/07/15 06:32:39;;;;;;;0.10;0.10;;;19.30;90.60;;;;;;4940745;28;20126;-69
2022/07/15 06:35:06;;;;;;;0.00;0.00;;;19.40;90.50;;;;;;4956916;28;20122;-69
2022/07/15 06:37:32;;;;;;;0.55;0.50;;;19.30;90.20;;;;;;4956727;28;20368;-69
2022/07/15 06:39:58;;;;;;;0.00;0.00;;;19.40;90.10;;;;;;4974100;28;20037;-68
2022/07/15 06:42:24;;;;;;;0.00;0.00;;;19.40;89.80;;;;;;4965061;28;20028;-68
2022/07/15 06:44:49;;;;;;;0.00;0.00;;;19.50;89.20;;;;;;4953284;28;20123;-68
2022/07/15 06:47:16;;;;;;;0.00;0.00;;;19.50;89.20;;;;;;4953349;28;20039;-68
2022/07/15 06:49:41;;;;;;;0.10;0.10;;;19.50;89.40;;;;;;4953211;29;20031;-68
2022/07/15 06:52:07;;;;;;;0.00;0.00;;;19.50;89.10;;;;;;4954623;29;20027;-69
2022/07/15 06:54:33;;;;;;;0.00;0.00;;;19.50;89.40;;;;;;4954089;28;20031;-69
2022/07/15 06:57:01;;;;;;;0.85;0.75;;;19.40;90.00;;;;;;4937241;29;20039;-68
2022/07/15 06:59:27;;;;;;;0.00;0.00;;;19.50;90.10;;;;;;4953327;29;20031;-69
2022/07/15 07:01:53;;;;;;;0.00;0.00;;;19.60;90.10;;;;;;4959373;28;20069;-69
2022/07/15 07:04:19;;;;;;;0.10;0.10;;;19.70;90.20;;;;;;4973107;28;20058;-68
2022/07/15 07:06:45;;;;;;;0.00;0.00;;;19.80;88.80;;;;;;4973407;28;20042;-69
2022/07/15 07:09:12;;;;;;;0.10;0.10;;;19.90;88.20;;;;;;4973319;28;20035;-68
2022/07/15 07:11:39;;;;;;;0.00;0.00;;;20.00;88.00;;;;;;4956017;28;20114;-69
2022/07/15 07:14:06;;;;;;;0.75;0.75;;;20.10;88.30;;;;;;4973519;28;20031;-68
2022/07/15 07:16:33;;;;;;;0.00;0.00;;;20.00;88.00;;;;;;4956229;28;20034;-69
2022/07/15 07:18:59;;;;;;;0.17;0.10;;;20.10;87.80;;;;;;4973081;28;20119;-69
2022/07/15 07:21:25;;;;;;;0.00;0.00;;;20.30;87.40;;;;;;4939672;28;20063;-68
2022/07/15 07:23:51;;;;;;;9.48;1.58;;;20.40;86.00;;;;;;4955433;28;20031;-68
2022/07/15 07:26:18;;;;;;;1.70;1.10;;;20.40;86.20;;;;;;4956097;28;20478;-68
2022/07/15 07:28:45;;;;;;;0.10;0.10;;;20.40;85.00;;;;;;4973093;28;20045;-67
2022/07/15 07:31:13;;;;;;;0.00;0.00;;;20.50;85.70;;;;;;4956096;28;20035;-68
2022/07/15 07:33:41;;;;;;;0.00;0.00;;;20.50;85.40;;;;;;4972864;28;20077;-68
2022/07/15 07:36:08;;;;;;;1.80;0.90;;;20.50;85.40;;;;;;4956302;28;20109;-68
2022/07/15 07:38:35;;;;;;;1.13;0.40;;;20.70;85.50;;;;;;4955707;28;20031;-68
2022/07/15 07:41:03;;;;;;;0.00;0.00;;;20.90;84.80;;;;;;4955608;28;20041;-68
2022/07/15 07:43:29;;;;;;;0.00;0.00;;;20.90;83.90;;;;;;4972652;28;20037;-68
2022/07/15 07:45:55;;;;;;;0.00;0.00;;;20.80;84.00;;;;;;4957204;28;20039;-68
2022/07/15 07:48:21;;;;;;;0.20;0.20;;;20.90;84.20;;;;;;4936147;29;20042;-68
2022/07/15 07:50:47;;;;;;;0.00;0.00;;;20.80;84.40;;;;;;4953497;28;20042;-68
2022/07/15 07:53:13;;;;;;;1.38;0.38;;;20.80;84.30;;;;;;4953219;29;20024;-68
2022/07/15 07:55:39;;;;;;;46.10;0.85;;;21.00;84.40;;;;;;4953288;28;20085;-68
2022/07/15 07:58:06;;;;;;;0.10;0.10;;;21.20;84.60;;;;;;4935996;29;20035;-68
2022/07/15 08:00:32;;;;;;;0.00;0.00;;;21.40;84.00;;;;;;4953388;29;20436;-68
2022/07/15 08:03:00;;;;;;;0.00;0.00;;;21.50;83.20;;;;;;4953258;29;20031;-68
2022/07/15 08:05:27;;;;;;;0.10;0.10;;;21.50;83.30;;;;;;4936025;29;20104;-68
2022/07/15 08:08:15;;;;;;;0.00;0.00;;;21.70;83.30;;;;;;4935916;29;20027;-68
2022/07/15 08:10:46;;;;;;;0.20;0.20;;;21.70;82.60;;;;;;4936137;29;20107;-68
2022/07/15 08:13:12;;;;;;;0.05;0.05;;;21.60;82.80;;;;;;4936840;29;20043;-68
2022/07/15 08:15:40;;;;;;;0.17;0.17;;;21.40;82.20;;;;;;4935788;28;20043;-68
2022/07/15 08:18:06;;;;;;;0.00;0.00;;;21.30;82.10;;;;;;4952313;29;20028;-68
2022/07/15 08:20:32;;;;;;;0.00;0.00;;;21.40;83.00;;;;;;4935753;29;20077;-68
2022/07/15 08:22:59;;;;;;;0.38;0.32;;;21.50;83.10;;;;;;4936023;29;20221;-68
2022/07/15 08:25:28;;;;;;;0.00;0.00;;;21.50;82.90;;;;;;4952718;28;20039;-68
2022/07/15 08:27:56;;;;;;;0.00;0.00;;;21.70;82.90;;;;;;4936044;29;20027;-68
2022/07/15 08:30:22;;;;;;;0.00;0.00;;;21.90;82.40;;;;;;4935567;29;20028;-68
2022/07/15 08:32:48;;;;;;;0.00;0.00;;;22.00;82.10;;;;;;4948158;28;20035;-68
2022/07/15 08:35:14;;;;;;;0.20;0.10;;;22.00;81.90;;;;;;4928275;29;20035;-68
2022/07/15 08:37:40;;;;;;;0.00;0.00;;;22.00;81.50;;;;;;4953050;29;20122;-68
2022/07/15 08:40:10;;;;;;;0.55;0.13;;;22.10;81.60;;;;;;4952640;28;20031;-68
2022/07/15 08:42:39;;;;;;;0.00;0.00;;;22.20;82.00;;;;;;4953073;29;20028;-68
2022/07/15 08:45:07;;;;;;;0.85;0.52;;;22.40;81.00;;;;;;4936041;29;20034;-68
2022/07/15 08:47:34;;;;;;;0.47;0.35;;;22.60;80.30;;;;;;4936059;29;20019;-68
2022/07/15 08:50:02;;;;;;;0.10;0.10;;;22.70;80.00;;;;;;4935988;29;20086;-68
2022/07/15 08:52:30;;;;;;;0.32;0.32;;;22.50;79.30;;;;;;4935737;29;20037;-68
2022/07/15 08:54:56;;;;;;;1.90;0.75;;;22.50;79.70;;;;;;4935873;29;20031;-68
2022/07/15 08:57:22;;;;;;;0.15;0.05;;;22.50;79.70;;;;;;4935928;29;20039;-68
2022/07/15 08:59:48;;;;;;;0.00;0.00;;;22.50;78.60;;;;;;4935784;29;20031;-68
2022/07/15 09:02:18;;;;;;;0.03;0.00;;;22.60;78.60;;;;;;4952630;28;20110;-67
2022/07/15 09:05:17;;;;;;;10.40;0.75;;;22.70;78.40;;;;;;4935978;29;20027;-68
2022/07/15 09:08:07;;;;;;;0.00;0.00;;;22.70;78.40;;;;;;4952665;29;20035;-68
2022/07/15 09:10:49;;;;;;;0.08;0.08;;;22.70;77.90;;;;;;4952266;28;20039;-68
2022/07/15 09:13:38;;;;;;;0.47;0.40;;;22.90;77.90;;;;;;4935475;29;20085;-68
2022/07/15 09:16:13;;;;;;;4.65;0.35;;;23.00;77.70;;;;;;4936113;28;20551;-68
2022/07/15 09:18:44;;;;;;;0.15;0.10;;;23.20;77.60;;;;;;4935694;29;20043;-68
2022/07/15 09:21:17;;;;;;;;;;;23.20;77.20;;;;;;4953175;29;20031;-68
2022/07/15 09:23:43;;;;;;;0.00;0.00;;;23.20;78.20;;;;;;4952335;28;19965;-69
2022/07/15 09:26:36;;;;;;;0.00;0.00;;;23.30;76.70;;;;;;4935368;29;20035;-68
2022/07/15 09:33:34;;;;;;;0.10;0.10;;;23.30;76.60;;;;;;4938930;29;20028;-68
2022/07/15 09:36:01;;;;;;;0.00;0.00;;;23.30;76.50;;;;;;4975069;28;20491;-68
2022/07/15 09:37:59;;;;;;;0.10;0.10;;;23.30;76.60;;;;;;4964189;28;20050;-68
2022/07/15 09:40:26;;;;;;;0.00;0.00;;;23.30;75.80;;;;;;4938863;29;20082;-69
2022/07/15 09:43:05;;;;;;;0.00;0.00;;;23.40;76.30;;;;;;4938346;29;20038;-68
2022/07/15 09:45:33;;;;;;;0.47;0.38;;;23.20;75.40;;;;;;4938788;29;20044;-68
2022/07/15 09:48:13;;;;;;;0.32;0.32;;;23.30;76.40;;;;;;4922577;29;20038;-68
2022/07/15 09:50:39;;;;;;;0.52;0.52;;;23.60;75.70;;;;;;4955441;29;20028;-68
2022/07/15 09:53:12;;;;;;;0.10;0.10;;;23.70;75.30;;;;;;4938463;29;20166;-68
2022/07/15 09:55:40;;;;;;;0.20;0.20;;;23.90;75.20;;;;;;4938223;29;20041;-68
2022/07/15 09:58:07;;;;;;;0.20;0.13;;;23.90;74.70;;;;;;4938323;29;20031;-67
2022/07/15 10:00:36;;;;;;;0.00;0.00;;;23.90;75.30;;;;;;4938365;29;20031;-67
2022/07/15 10:03:03;;;;;;;0.00;0.00;;;24.10;74.70;;;;;;4952343;28;20039;-68
2022/07/15 10:05:30;;;;;;;0.00;0.00;;;24.40;75.10;;;;;;4974389;28;20055;-68
2022/07/15 10:08:01;;;;;;;0.47;0.47;;;24.50;74.80;;;;;;4957722;28;20050;-68
2022/07/15 10:10:27;;;;;;;;;;;24.60;74.80;;;;;;4958276;28;20058;-68
2022/07/15 10:13:26;;;;;;;0.08;0.03;;;24.70;74.70;;;;;;4957135;28;20429;-67
2022/07/15 10:16:14;;;;;;;0.00;0.00;;;24.50;74.60;;;;;;4974515;28;20034;-67
2022/07/15 10:19:57;;;;;;;0.00;0.00;;;24.40;75.20;;;;;;4958590;28;20031;-67
2022/07/15 10:23:01;;;;;;;0.17;0.05;;;24.40;74.90;;;;;;4913731;29;20420;-68
2022/07/15 10:26:00;;;;;;;0.15;0.15;;;24.60;75.10;;;;;;4973210;28;20084;-68
2022/07/15 10:29:06;;;;;;;0.05;0.05;;;24.80;74.30;;;;;;4974472;28;20026;-68
2022/07/15 10:31:34;;;;;;;0.00;0.00;;;25.10;74.50;;;;;;4901985;29;20091;-68
2022/07/15 10:34:03;;;;;;;0.05;0.00;;;25.30;73.50;;;;;;4967566;28;20435;-68
2022/07/15 10:36:48;;;;;;;5.28;1.20;;;25.30;73.40;;;;;;4954878;28;20042;-68
2022/07/15 10:39:19;;;;;;;0.15;0.15;;;25.10;73.80;;;;;;4952574;28;20035;-68
2022/07/15 10:42:02;;;;;;;0.20;0.10;;;24.90;75.00;;;;;;4954827;29;20443;-67
2022/07/15 10:44:32;;;;;;;0.10;0.10;;;25.00;74.20;;;;;;4954567;28;20035;-68
2022/07/15 10:47:13;;;;;;;0.00;0.00;;;25.20;75.00;;;;;;4953308;29;20035;-68
2022/07/15 10:49:49;;;;;;;0.00;0.00;;;25.30;74.40;;;;;;4954430;29;20031;-67
2022/07/15 10:52:22;;;;;;;1.05;0.43;;;25.30;74.60;;;;;;4954640;29;20039;-67
2022/07/15 10:54:59;;;;;;;0.30;0.28;;;25.50;73.70;;;;;;4953409;28;20035;-67
2022/07/15 10:57:40;;;;;;;0.40;0.25;;;25.70;73.60;;;;;;4954259;29;20027;-68
2022/07/15 11:00:35;;;;;;;0.10;0.03;;;25.70;72.80;;;;;;4954176;29;20046;-68
2022/07/15 11:03:04;;;;;;;0.05;0.05;;;25.70;73.10;;;;;;4967125;28;20491;-68
2022/07/15 11:05:30;;;;;;;0.70;0.30;;;25.30;73.30;;;;;;4973715;28;20081;-68
2022/07/15 11:07:55;;;;;;;0.00;0.00;;;25.20;73.30;;;;;;4973256;28;20070;-68
2022/07/15 11:10:22;;;;;;;0.00;0.00;;;25.50;72.80;;;;;;4973414;28;20031;-68
2022/07/15 11:12:48;;;;;;;0.00;0.00;;;25.70;72.50;;;;;;4973227;28;20060;-68
2022/07/15 11:15:16;;;;;;;2.65;1.08;;;25.80;71.20;;;;;;4973262;28;20055;-69
2022/07/15 11:17:51;;;;;;;0.55;0.50;;;25.70;71.00;;;;;;4956185;28;20113;-69
2022/07/15 11:20:25;;;;;;;0.10;0.10;;;25.60;70.90;;;;;;4973223;28;20364;-69
2022/07/15 11:22:57;;;;;;;0.13;0.10;;;25.80;71.20;;;;;;4956128;28;20022;-68
2022/07/15 11:25:38;;;;;;;0.15;0.15;;;25.60;70.90;;;;;;4955703;28;20069;-67
2022/07/15 11:28:13;;;;;;;0.32;0.30;;;25.70;70.80;;;;;;4964099;28;20024;-68
2022/07/15 11:30:53;;;;;;;0.38;0.30;;;25.90;70.70;;;;;;4936877;29;20039;-68
2022/07/15 11:33:25;;;;;;;0.25;0.17;;;25.90;69.70;;;;;;4969977;28;20535;-69
2022/07/15 11:36:02;;;;;;;0.80;0.73;;;26.30;69.70;;;;;;4972965;28;20153;-68
2022/07/15 11:38:36;;;;;;;0.00;0.00;;;26.10;68.70;;;;;;4955864;28;20039;-67
2022/07/15 11:46:52;;;;;;;3.33;0.93;;;26.50;69.50;;;;;;4958440;28;20391;-68
2022/07/15 11:49:29;;;;;;;0.00;0.00;;;26.80;68.20;;;;;;4955534;28;20479;-68
2022/07/15 11:51:55;;;;;;;0.10;0.10;;;27.10;68.00;;;;;;4971892;28;20077;-68
2022/07/15 11:54:22;;;;;;;0.00;0.00;;;26.90;69.40;;;;;;4972595;28;20056;-68
2022/07/15 11:56:56;;;;;;;0.10;0.10;;;27.10;68.70;;;;;;4955299;28;20635;-67
2022/07/15 11:59:21;;;;;;;2.17;1.00;;;26.80;68.10;;;;;;4972487;28;20029;-68
2022/07/15 12:01:48;;;;;;;0.00;0.00;;;27.00;67.60;;;;;;4955421;28;20031;-67
2022/07/15 12:04:14;;;;;;;0.28;0.28;;;27.30;67.30;;;;;;4955142;28;20715;-67
2022/07/15 12:06:40;;;;;;;0.47;0.47;;;27.20;67.60;;;;;;4955466;28;20114;-67
2022/07/15 12:09:10;;;;;;;0.22;0.22;;;27.30;66.10;;;;;;4972406;28;20035;-69
2022/07/15 12:11:38;;;;;;;0.00;0.00;;;27.50;66.10;;;;;;4972815;28;20031;-68
2022/07/15 12:14:09;;;;;;;0.08;0.08;;;27.50;65.60;;;;;;4939085;28;20031;-69
2022/07/15 12:16:44;;;;;;;0.20;0.13;;;27.20;65.60;;;;;;4955382;28;20030;-69
2022/07/15 12:19:19;;;;;;;3.72;1.45;;;27.30;66.10;;;;;;4972503;28;20042;-69
2022/07/15 12:21:48;;;;;;;4.78;0.35;;;27.30;67.30;;;;;;4972266;28;20503;-70
2022/07/15 12:24:21;;;;;;;0.00;0.00;;;27.50;67.10;;;;;;4955045;28;20038;-69
2022/07/15 12:26:49;;;;;;;3.92;0.20;;;27.70;66.00;;;;;;4955161;28;20027;-69
2022/07/15 12:29:21;;;;;;;0.30;0.30;;;27.70;63.90;;;;;;4972236;28;20035;-69
2022/07/15 12:32:04;;;;;;;0.00;0.00;;;27.50;65.00;;;;;;4955223;28;20714;-69
2022/07/15 12:34:54;;;;;;;1.25;0.75;;;27.60;65.00;;;;;;4939605;28;20039;-68
2022/07/15 12:37:27;;;;;;;0.00;0.00;;;27.60;65.20;;;;;;4955130;28;20050;-68
2022/07/15 12:40:12;;;;;;;0.08;0.08;;;27.20;65.50;;;;;;4955743;28;20122;-69
2022/07/15 12:42:49;;;;;;;0.43;0.43;;;27.10;66.90;;;;;;4972079;28;20031;-68
2022/07/15 12:45:22;;;;;;;0.43;0.43;;;27.30;66.70;;;;;;4947090;28;20039;-68
2022/07/15 12:48:04;;;;;;;0.85;0.20;;;27.60;66.20;;;;;;4951819;28;20118;-69
2022/07/15 12:50:43;;;;;;;0.35;0.32;;;27.80;64.70;;;;;;4951617;29;20039;-69
2022/07/15 12:53:09;;;;;;;0.70;0.45;;;27.70;64.90;;;;;;4953014;29;20063;-69
2022/07/15 12:55:46;;;;;;;0.38;0.38;;;27.60;64.00;;;;;;4952898;28;20492;-69
2022/07/15 12:58:22;;;;;;;0.00;0.00;;;27.50;63.40;;;;;;4952872;29;20038;-69
2022/07/15 13:00:48;;;;;;;0.10;0.10;;;27.50;63.40;;;;;;4952810;29;20032;-69
2022/07/15 13:03:20;;;;;;;0.30;0.20;;;28.00;63.80;;;;;;4969674;28;20125;-68
2022/07/15 13:05:48;;;;;;;0.60;0.30;;;27.80;64.60;;;;;;4958786;28;20101;-69
2022/07/15 13:08:18;;;;;;;1.33;0.90;;;28.10;64.40;;;;;;4958633;28;20375;-69
2022/07/15 13:10:48;;;;;;;0.13;0.10;;;28.20;63.00;;;;;;4958404;28;20045;-69
2022/07/15 13:13:16;;;;;;;0.00;0.00;;;28.60;63.00;;;;;;4958689;28;20278;-69
2022/07/15 13:15:43;;;;;;;0.25;0.20;;;28.30;63.00;;;;;;4958153;28;20045;-69
2022/07/15 13:18:10;;;;;;;0.00;0.00;;;28.10;63.20;;;;;;4942903;28;20035;-69